createdAt,value
2023-04-16T00:00:25.559Z,99651.34
2023-04-16T00:03:27.528Z,99639.31
2023-04-16T00:06:29.607Z,99640.31
2023-04-16T00:09:32.792Z,99646.13
2023-04-16T00:12:36.588Z,99636.75
2023-04-16T00:15:38.400Z,99635.03
2023-04-16T00:18:40.929Z,99660.50
2023-04-16T00:21:42.850Z,99666.03
2023-04-16T00:24:46.046Z,99662.31
2023-04-16T00:27:48.509Z,99666.63
2023-04-16T00:30:50.330Z,99667.31
2023-04-16T00:33:52.143Z,99663.97
2023-04-16T00:36:53.907Z,99661.50
2023-04-16T00:39:57.074Z,99666.50
2023-04-16T00:42:58.853Z,99663.31
2023-04-16T00:46:04.593Z,99662.19
2023-04-16T00:49:06.638Z,99669.25
2023-04-16T00:52:08.607Z,99664.00
2023-04-16T00:55:13.492Z,99668.16
2023-04-16T00:58:15.987Z,99663.88
2023-04-16T01:01:17.871Z,99641.38
2023-04-16T01:04:20.755Z,99655.41
2023-04-16T01:07:22.703Z,99671.78
2023-04-16T01:10:26.033Z,99667.31
2023-04-16T01:13:27.912Z,99668.41
2023-04-16T01:16:29.784Z,99672.03
2023-04-16T01:19:32.452Z,99656.09
2023-04-16T01:22:35.618Z,99673.00
2023-04-16T01:25:38.597Z,99681.91
2023-04-16T01:28:40.579Z,99675.66
2023-04-16T01:31:42.586Z,99663.19
2023-04-16T01:34:45.541Z,99670.91
2023-04-16T01:37:50.010Z,99673.56
2023-04-16T01:40:57.091Z,99662.03
2023-04-16T01:43:58.905Z,99682.16
2023-04-16T01:47:01.525Z,99672.72
2023-04-16T01:50:04.318Z,99677.88
2023-04-16T01:53:07.564Z,99674.53
2023-04-16T01:56:09.350Z,99670.94
2023-04-16T01:59:12.387Z,99651.25
2023-04-16T02:02:16.508Z,99665.38
2023-04-16T02:05:19.508Z,99676.50
2023-04-16T02:08:23.367Z,99690.63
2023-04-16T02:11:25.379Z,99681.47
2023-04-16T02:14:27.997Z,99679.13
2023-04-16T02:17:30.302Z,99667.31
2023-04-16T02:20:32.145Z,99681.19
2023-04-16T02:23:35.666Z,99668.81
2023-04-16T02:26:37.524Z,99688.91
2023-04-16T02:29:39.340Z,99690.69
2023-04-16T02:32:41.240Z,99672.09
2023-04-16T02:35:43.257Z,99692.31
2023-04-16T02:38:47.008Z,99683.25
2023-04-16T02:41:48.844Z,99685.91
2023-04-16T02:44:50.623Z,99691.34
2023-04-16T02:47:52.565Z,99691.34
2023-04-16T02:50:54.402Z,99692.69
2023-04-16T02:53:58.591Z,99692.09
2023-04-16T02:57:00.660Z,99705.00
2023-04-16T03:00:02.486Z,99695.81
2023-04-16T03:03:05.931Z,99701.41
2023-04-16T03:06:07.828Z,99694.69
2023-04-16T03:09:11.807Z,99675.19
2023-04-16T03:12:13.708Z,99707.94
2023-04-16T03:15:15.985Z,99699.59
2023-04-16T03:18:18.082Z,99690.75
2023-04-16T03:21:19.964Z,99699.28
2023-04-16T03:24:23.468Z,99705.78
2023-04-16T03:27:25.479Z,99714.94
2023-04-16T03:30:28.145Z,99719.84
2023-04-16T03:33:29.938Z,99711.84
2023-04-16T03:36:32.674Z,99703.38
2023-04-16T03:39:36.093Z,99732.84
2023-04-16T03:42:37.937Z,99734.81
2023-04-16T03:45:44.468Z,99740.59
2023-04-16T03:48:46.685Z,99750.00
2023-04-16T03:51:49.082Z,99735.38
2023-04-16T03:54:52.425Z,99744.56
2023-04-16T03:57:54.321Z,99760.22
2023-04-16T04:00:56.981Z,99744.56
2023-04-16T04:03:59.176Z,99768.28
2023-04-16T04:07:02.012Z,99769.47
2023-04-16T04:10:06.322Z,99764.41
2023-04-16T04:13:08.245Z,99768.97
2023-04-16T04:16:10.071Z,99766.25
2023-04-16T04:19:11.896Z,99764.53
2023-04-16T04:22:13.814Z,99775.19
2023-04-16T04:25:17.808Z,99762.53
2023-04-16T04:28:19.631Z,99749.44
2023-04-16T04:31:22.079Z,99770.03
2023-04-16T04:34:23.988Z,99748.47
2023-04-16T04:37:26.016Z,99768.09
2023-04-16T04:40:29.208Z,99773.97
2023-04-16T04:43:31.973Z,99754.91
2023-04-16T04:46:33.835Z,99765.94
2023-04-16T04:49:36.027Z,99775.03
2023-04-16T04:52:37.837Z,99778.53
2023-04-16T04:55:41.039Z,99751.41
2023-04-16T04:58:42.953Z,99777.16
2023-04-16T05:01:44.816Z,99775.88
2023-04-16T05:04:46.890Z,99782.97
2023-04-16T05:07:48.828Z,99765.63
2023-04-16T05:10:52.171Z,99787.31
2023-04-16T05:13:54.021Z,99788.78
2023-04-16T05:16:57.037Z,99790.97
2023-04-16T05:20:00.653Z,99778.53
2023-04-16T05:23:02.505Z,99779.59
2023-04-16T05:26:05.780Z,99794.28
2023-04-16T05:29:07.774Z,99788.03
2023-04-16T05:32:09.803Z,99789.56
2023-04-16T05:35:11.697Z,99782.19
2023-04-16T05:38:13.904Z,99786.53
2023-04-16T05:41:17.073Z,99805.84
2023-04-16T05:44:18.884Z,99819.91
2023-04-16T05:47:21.533Z,99817.41
2023-04-16T05:50:23.468Z,99814.69
2023-04-16T05:53:25.523Z,99805.84
2023-04-16T05:56:28.886Z,99815.97
2023-04-16T05:59:31.397Z,99815.72
2023-04-16T06:02:33.410Z,99827.03
2023-04-16T06:05:35.395Z,99825.22
2023-04-16T06:08:37.280Z,99832.38
2023-04-16T06:11:41.624Z,99834.31
2023-04-16T06:14:43.437Z,99832.69
2023-04-16T06:17:45.859Z,99816.25
2023-04-16T06:20:47.914Z,99830.84
2023-04-16T06:23:49.882Z,99837.00
2023-04-16T06:26:54.769Z,99838.00
2023-04-16T06:29:57.417Z,99830.38
2023-04-16T06:32:59.481Z,99847.75
2023-04-16T06:36:01.378Z,99827.72
2023-04-16T06:39:03.269Z,99839.13
2023-04-16T06:42:06.949Z,99850.78
2023-04-16T06:45:09.696Z,99853.81
2023-04-16T06:48:11.574Z,99838.53
2023-04-16T06:51:13.492Z,99836.56
2023-04-16T06:54:15.554Z,99830.81
2023-04-16T06:57:18.945Z,99829.22
2023-04-16T07:00:23.789Z,99834.69
2023-04-16T07:03:26.783Z,99820.69
2023-04-16T07:06:28.753Z,99839.06
2023-04-16T07:09:31.546Z,99827.41
2023-04-16T07:12:34.788Z,99834.47
2023-04-16T07:15:36.683Z,99837.25
2023-04-16T07:18:38.569Z,99846.94
2023-04-16T07:21:42.111Z,99848.00
2023-04-16T07:24:44.444Z,99848.31
2023-04-16T07:27:47.628Z,99840.56
2023-04-16T07:30:49.741Z,99844.84
2023-04-16T07:33:51.715Z,99846.22
2023-04-16T07:36:54.406Z,99768.88
2023-04-16T07:39:57.763Z,99843.47
2023-04-16T07:43:01.051Z,99849.69
2023-04-16T07:46:02.966Z,99826.81
2023-04-16T07:49:04.790Z,99843.66
2023-04-16T07:52:07.421Z,99842.19
2023-04-16T07:55:09.645Z,99838.81
2023-04-16T07:58:12.872Z,99832.41
2023-04-16T08:01:14.682Z,99822.13
2023-04-16T08:04:23.301Z,99783.13
2023-04-16T08:07:25.570Z,99774.72
2023-04-16T08:10:28.009Z,99756.91
2023-04-16T08:13:33.485Z,99774.50
2023-04-16T08:16:35.561Z,99750.28
2023-04-16T08:19:37.383Z,99780.84
2023-04-16T08:22:39.428Z,99776.94
2023-04-16T08:25:41.312Z,99752.91
2023-04-16T08:28:44.448Z,99768.50
2023-04-16T08:31:46.813Z,99830.00
2023-04-16T08:34:48.845Z,99840.97
2023-04-16T08:37:51.382Z,99843.47
2023-04-16T08:40:55.148Z,99842.31
2023-04-16T08:44:02.391Z,99841.09
2023-04-16T08:47:09.130Z,99826.66
2023-04-16T08:50:14.989Z,99837.25
2023-04-16T08:53:19.318Z,99851.03
2023-04-16T08:56:23.792Z,99851.34
2023-04-16T08:59:29.492Z,99859.63
2023-04-16T09:02:31.696Z,99843.31
2023-04-16T09:05:34.967Z,99840.16
2023-04-16T09:08:38.255Z,99834.63
2023-04-16T09:11:40.121Z,99838.13
2023-04-16T09:14:44.311Z,99842.16
2023-04-16T09:17:46.193Z,99840.13
2023-04-16T09:20:49.195Z,99840.13
2023-04-16T09:23:52.958Z,99849.50
2023-04-16T09:26:55.934Z,99844.22
2023-04-16T09:29:59.408Z,99811.53
2023-04-16T09:33:22.463Z,99836.28
2023-04-16T09:36:24.729Z,99860.91
2023-04-16T09:39:27.494Z,99865.84
2023-04-16T09:42:31.815Z,99863.16
2023-04-16T09:45:48.561Z,99786.50
2023-04-16T09:48:51.263Z,99861.59
2023-04-16T09:51:56.251Z,99869.22
2023-04-16T09:55:00.000Z,99862.06
2023-04-16T09:58:02.386Z,99844.16
2023-04-16T10:01:08.409Z,99861.94
2023-04-16T10:04:11.473Z,99864.25
2023-04-16T10:07:13.493Z,99856.22
2023-04-16T10:10:16.364Z,99861.25
2023-04-16T10:13:19.236Z,99851.28
2023-04-16T10:16:22.942Z,99855.91
2023-04-16T10:19:25.202Z,99854.22
2023-04-16T10:22:27.096Z,99861.19
2023-04-16T10:25:29.253Z,99842.53
2023-04-16T10:28:31.501Z,99861.00
2023-04-16T10:31:36.925Z,99860.50
2023-04-16T10:34:39.806Z,99847.25
2023-04-16T10:37:43.095Z,99837.97
2023-04-16T10:40:45.142Z,99843.94
2023-04-16T10:43:48.565Z,99847.88
2023-04-16T10:46:54.959Z,99836.50
2023-04-16T10:49:58.450Z,99838.44
2023-04-16T10:53:20.765Z,99835.75
2023-04-16T10:56:26.913Z,99830.06
2023-04-16T10:59:31.926Z,99822.25
2023-04-16T11:02:35.317Z,99822.13
2023-04-16T11:05:47.022Z,99820.84
2023-04-16T11:08:55.085Z,99809.31
2023-04-16T11:11:57.963Z,99813.22
2023-04-16T11:15:01.854Z,99819.63
2023-04-16T11:18:07.116Z,99816.66
2023-04-16T11:21:10.606Z,99815.56
2023-04-16T11:24:12.933Z,99806.34
2023-04-16T11:27:16.198Z,99807.00
2023-04-16T11:30:27.987Z,99799.47
2023-04-16T11:33:31.611Z,99814.84
2023-04-16T11:36:43.370Z,99808.16
2023-04-16T11:39:49.847Z,99798.97
2023-04-16T11:42:51.691Z,99788.19
2023-04-16T11:45:57.913Z,99806.91
2023-04-16T11:49:01.260Z,99800.84
2023-04-16T11:52:03.901Z,99798.66
2023-04-16T11:55:06.654Z,99799.53
2023-04-16T11:58:12.919Z,99804.56
2023-04-16T12:01:20.565Z,99772.63
2023-04-16T12:04:25.727Z,99801.91
2023-04-16T12:07:27.880Z,99781.47
2023-04-16T12:10:30.707Z,99793.25
2023-04-16T12:13:39.830Z,99794.91
2023-04-16T12:16:41.878Z,99792.19
2023-04-16T12:19:52.897Z,99781.44
2023-04-16T12:22:57.098Z,99777.41
2023-04-16T12:26:10.557Z,99774.94
2023-04-16T12:29:17.325Z,99775.00
2023-04-16T12:32:23.501Z,99774.72
2023-04-16T12:35:34.344Z,99763.22
2023-04-16T12:38:36.256Z,99773.63
2023-04-16T12:41:40.358Z,99767.22
2023-04-16T12:44:42.241Z,99774.25
2023-04-16T12:47:44.051Z,99768.94
2023-04-16T12:50:48.444Z,99761.94
2023-04-16T12:53:50.371Z,99765.66
2023-04-16T12:56:52.651Z,99759.69
2023-04-16T12:59:55.177Z,99764.94
2023-04-16T13:02:57.136Z,99757.56
2023-04-16T13:06:02.348Z,99764.50
2023-04-16T13:09:05.004Z,99745.34
2023-04-16T13:12:07.548Z,99757.75
2023-04-16T13:15:10.732Z,99752.78
2023-04-16T13:18:12.570Z,99755.19
2023-04-16T13:21:16.123Z,99754.19
2023-04-16T13:24:17.953Z,99745.41
2023-04-16T13:27:20.433Z,99753.31
2023-04-16T13:30:25.568Z,99746.53
2023-04-16T13:33:28.223Z,99747.91
2023-04-16T13:36:33.482Z,99748.78
2023-04-16T13:39:35.737Z,99745.34
2023-04-16T13:42:38.711Z,99739.75
2023-04-16T13:45:40.955Z,99742.63
2023-04-16T13:48:42.857Z,99737.28
2023-04-16T13:51:46.439Z,99705.53
2023-04-16T13:54:48.564Z,99731.22
2023-04-16T13:57:52.985Z,99727.84
2023-04-16T14:00:56.303Z,99720.91
2023-04-16T14:03:59.583Z,99726.97
2023-04-16T14:07:02.885Z,99727.28
2023-04-16T14:10:05.639Z,99723.84
2023-04-16T14:13:08.526Z,99703.09
2023-04-16T14:16:11.145Z,99714.81
2023-04-16T14:19:14.195Z,99720.59
2023-04-16T14:22:18.062Z,99718.50
2023-04-16T14:25:21.042Z,99707.09
2023-04-16T14:28:23.252Z,99701.31
2023-04-16T14:31:26.870Z,99719.88
2023-04-16T14:34:29.369Z,99709.63
2023-04-16T14:37:36.294Z,99714.53
2023-04-16T14:40:38.256Z,99714.75
2023-04-16T14:43:41.576Z,99710.09
2023-04-16T14:46:44.047Z,99705.00
2023-04-16T14:49:46.933Z,99706.78
2023-04-16T14:52:51.098Z,99707.41
2023-04-16T14:55:53.716Z,99691.53
2023-04-16T14:58:56.526Z,99705.38
2023-04-16T15:01:59.363Z,99698.03
2023-04-16T15:05:02.129Z,99703.84
2023-04-16T15:08:09.034Z,99688.22
2023-04-16T15:11:11.166Z,99687.00
2023-04-16T15:14:13.721Z,99680.16
2023-04-16T15:17:15.774Z,99690.06
2023-04-16T15:20:18.794Z,99699.22
2023-04-16T15:23:22.868Z,99698.91
2023-04-16T15:26:26.234Z,99693.94
2023-04-16T15:29:28.195Z,99681.91
2023-04-16T15:32:31.434Z,99705.16
2023-04-16T15:35:37.204Z,99712.88
2023-04-16T15:38:40.906Z,99682.59
2023-04-16T15:41:59.311Z,99714.31
2023-04-16T15:45:03.272Z,99703.53
2023-04-16T15:48:07.134Z,99699.72
2023-04-16T15:51:09.565Z,99664.66
2023-04-16T15:54:13.598Z,99643.81
2023-04-16T15:57:16.665Z,99672.63
2023-04-16T16:00:20.360Z,99698.66
2023-04-16T16:03:25.093Z,99706.28
2023-04-16T16:06:30.557Z,99696.19
2023-04-16T16:09:35.697Z,99702.03
2023-04-16T16:12:38.170Z,99702.97
2023-04-16T16:15:41.803Z,99705.41
2023-04-16T16:18:44.287Z,99701.16
2023-04-16T16:21:47.760Z,99697.94
2023-04-16T16:24:56.761Z,99703.19
2023-04-16T16:28:00.409Z,99709.81
2023-04-16T16:31:03.906Z,99713.22
2023-04-16T16:34:06.252Z,99693.63
2023-04-16T16:37:08.832Z,99705.72
2023-04-16T16:40:12.691Z,99707.19
2023-04-16T16:43:15.209Z,99706.59
2023-04-16T16:46:17.887Z,99704.25
2023-04-16T16:49:20.391Z,99714.53
2023-04-16T16:52:24.295Z,99711.22
2023-04-16T16:55:28.064Z,99711.28
2023-04-16T16:58:30.899Z,99717.25
2023-04-16T17:01:35.471Z,99711.28
2023-04-16T17:04:38.972Z,99714.59
2023-04-16T17:07:41.885Z,99709.63
2023-04-16T17:10:46.489Z,99728.84
2023-04-16T17:13:49.029Z,99706.25
2023-04-16T17:16:51.585Z,99727.16
2023-04-16T17:19:56.492Z,99716.63
2023-04-16T17:22:59.993Z,99707.75
2023-04-16T17:26:08.565Z,99712.88
2023-04-16T17:29:11.764Z,99733.94
2023-04-16T17:32:15.488Z,99735.97
2023-04-16T17:35:18.305Z,99741.47
2023-04-16T17:38:21.068Z,99699.25
2023-04-16T17:41:25.765Z,99734.06
2023-04-16T17:44:28.584Z,99749.03
2023-04-16T17:47:31.980Z,99735.97
2023-04-16T17:50:35.752Z,99743.94
2023-04-16T17:53:39.818Z,99735.53
2023-04-16T17:56:44.561Z,99736.16
2023-04-16T17:59:47.294Z,99757.59
2023-04-16T18:02:52.751Z,99759.13
2023-04-16T18:05:55.744Z,99773.06
2023-04-16T18:08:58.806Z,99723.78
2023-04-16T18:12:02.552Z,99758.66
2023-04-16T18:15:06.235Z,99754.84
2023-04-16T18:18:08.755Z,99768.19
2023-04-16T18:21:11.708Z,99757.00
2023-04-16T18:24:14.232Z,99767.47
2023-04-16T18:27:18.437Z,99765.00
2023-04-16T18:30:26.418Z,99785.44
2023-04-16T18:33:52.627Z,99771.03
2023-04-16T18:36:52.706Z,99778.84
2023-04-16T18:39:58.377Z,99785.47
2023-04-16T18:43:01.973Z,99787.81
2023-04-16T18:46:05.168Z,99774.03
2023-04-16T18:49:07.433Z,99770.31
2023-04-16T18:52:09.754Z,99751.03
2023-04-16T18:55:13.100Z,99758.66
2023-04-16T18:58:18.262Z,99755.19
2023-04-16T19:01:21.486Z,99734.63
2023-04-16T19:04:26.549Z,99744.72
2023-04-16T19:07:29.158Z,99761.56
2023-04-16T19:10:32.151Z,99768.91
2023-04-16T19:13:39.153Z,99759.81
2023-04-16T19:16:42.166Z,99766.78
2023-04-16T19:19:45.669Z,99758.25
2023-04-16T19:22:53.434Z,99745.69
2023-04-16T19:25:57.519Z,99742.84
2023-04-16T19:29:03.244Z,99741.81
2023-04-16T19:32:07.072Z,99754.13
2023-04-16T19:35:12.079Z,99753.94
2023-04-16T19:38:15.116Z,99750.53
2023-04-16T19:41:17.629Z,99751.34
2023-04-16T19:44:23.683Z,99757.56
2023-04-16T19:47:26.527Z,99742.38
2023-04-16T19:50:28.636Z,99753.19
2023-04-16T19:53:31.050Z,99760.47
2023-04-16T19:56:33.694Z,99748.56
2023-04-16T19:59:38.923Z,99741.19
2023-04-16T20:02:41.835Z,99770.22
2023-04-16T20:05:44.604Z,99762.50
2023-04-16T20:08:47.021Z,99762.19
2023-04-16T20:11:51.035Z,99775.88
2023-04-16T20:14:55.216Z,99762.19
2023-04-16T20:17:58.294Z,99761.78
2023-04-16T20:21:03.992Z,99766.94
2023-04-16T20:24:11.665Z,99760.78
2023-04-16T20:27:14.654Z,99731.72
2023-04-16T20:30:19.029Z,99766.94
2023-04-16T20:33:20.888Z,99756.19
2023-04-16T20:36:23.772Z,99759.47
2023-04-16T20:39:28.200Z,99770.97
2023-04-16T20:42:32.324Z,99767.63
2023-04-16T20:45:40.885Z,99752.63
2023-04-16T20:48:43.317Z,99752.81
2023-04-16T20:51:45.537Z,99752.44
2023-04-16T20:54:47.834Z,99761.56
2023-04-16T20:57:49.980Z,99742.63
2023-04-16T21:00:55.067Z,99759.66
2023-04-16T21:03:57.196Z,99735.28
2023-04-16T21:07:03.213Z,99736.66
2023-04-16T21:10:05.866Z,99754.75
2023-04-16T21:13:07.725Z,99751.13
2023-04-16T21:16:12.562Z,99756.78
2023-04-16T21:19:14.478Z,99763.13
2023-04-16T21:22:16.643Z,99747.75
2023-04-16T21:25:18.447Z,99763.13
2023-04-16T21:28:20.498Z,99743.66
2023-04-16T21:31:23.800Z,99732.66
2023-04-16T21:34:26.426Z,99706.25
2023-04-16T21:37:28.232Z,99743.31
2023-04-16T21:40:30.124Z,99735.09
2023-04-16T21:43:34.623Z,99745.69
2023-04-16T21:46:37.844Z,99747.03
2023-04-16T21:49:39.783Z,99751.00
2023-04-16T21:52:46.691Z,99741.53
2023-04-16T21:55:48.513Z,99724.94
2023-04-16T21:58:50.408Z,99744.69
2023-04-16T22:01:53.667Z,99744.75
2023-04-16T22:04:55.780Z,99738.59
2023-04-16T22:07:58.361Z,99717.34
2023-04-16T22:11:02.002Z,99729.59
2023-04-16T22:14:08.869Z,99731.22
2023-04-16T22:17:11.988Z,99724.34
2023-04-16T22:20:14.678Z,99721.06
2023-04-16T22:23:16.596Z,99727.22
2023-04-16T22:26:18.443Z,99729.31
2023-04-16T22:29:21.268Z,99723.19
2023-04-16T22:32:24.586Z,99715.03
2023-04-16T22:35:26.516Z,99720.16
2023-04-16T22:38:29.304Z,99709.66
2023-04-16T22:41:31.143Z,99709.69
2023-04-16T22:44:33.277Z,99702.22
2023-04-16T22:47:36.530Z,99706.69
2023-04-16T22:50:38.366Z,99717.50
2023-04-16T22:53:40.496Z,99721.53
2023-04-16T22:56:42.326Z,99700.47
2023-04-16T22:59:44.231Z,99711.22
2023-04-16T23:02:47.709Z,99718.03
2023-04-16T23:05:49.549Z,99703.28
2023-04-16T23:08:51.363Z,99722.06
2023-04-16T23:11:53.294Z,99693.66
2023-04-16T23:14:55.100Z,99673.41
2023-04-16T23:17:58.704Z,99700.13
2023-04-16T23:21:00.621Z,99698.47
2023-04-16T23:24:03.483Z,99702.09
2023-04-16T23:27:06.116Z,99699.09
2023-04-16T23:30:08.857Z,99695.41
2023-04-16T23:33:12.536Z,99684.47
2023-04-16T23:36:14.367Z,99694.31
2023-04-16T23:39:17.157Z,99689.97
2023-04-16T23:42:18.992Z,99685.34
2023-04-16T23:45:20.865Z,99681.03
2023-04-16T23:48:24.568Z,99682.19
2023-04-16T23:51:26.690Z,99665.31
2023-04-16T23:54:29.119Z,99653.38
2023-04-16T23:57:31.106Z,99672.41
